Time;durP1;ratioP1;P1;durP2;ratioP2;P2;SDS_P1;SDS_P2;PMS_P1;PMS_P2;Temp;Humidity;BMP_temperature;BMP_pressure;BME280_temperature;BME280_humidity;BME280_pressure;Samples;Min_cycle;Max_cycle;Signal;HPM_P1;HPM_P2
2020/12/09 05:18:01;;;;;;;20.03;7.90;;;;;;;;;;4221755;27;20364;-54
2020/12/09 05:20:26;;;;;;;22.05;7.97;;;;;;;;;;4209723;28;20513;-54
2020/12/09 05:22:48;;;;;;;24.70;7.72;;;;;;;;;;4227867;28;20054;-53
2020/12/09 05:25:09;;;;;;;25.52;9.85;;;;;;;;;;4227713;28;20406;-51
2020/12/09 05:27:33;;;;;;;25.05;8.77;;;;;;;;;;4227515;28;20093;-51
2020/12/09 05:29:53;;;;;;;20.35;9.63;;;;;;;;;;4225810;28;20456;-50
2020/12/09 05:32:14;;;;;;;19.65;9.80;;;;;;;;;;4227442;28;20058;-51
2020/12/09 05:34:38;;;;;;;23.52;9.38;;;;;;;;;;4226784;28;20058;-50
2020/12/09 05:36:58;;;;;;;;;;;;;;;;;;4227556;28;20489;-50
2020/12/09 05:39:22;;;;;;;22.45;10.23;;;;;;;;;;4226220;28;19931;-50
2020/12/09 05:41:45;;;;;;;22.23;10.50;;;;;;;;;;4226761;28;20503;-50
2020/12/09 05:44:06;;;;;;;21.98;11.07;;;;;;;;;;4224243;28;20121;-51
2020/12/09 05:46:26;;;;;;;22.88;10.40;;;;;;;;;;4226836;28;20120;-50
2020/12/09 05:48:47;;;;;;;24.15;12.23;;;;;;;;;;4226584;28;20537;-50
2020/12/09 05:51:11;;;;;;;20.60;11.15;;;;;;;;;;4226532;28;20132;-50
2020/12/09 05:53:34;;;;;;;20.35;12.00;;;;;;;;;;4226033;28;20109;-48
2020/12/09 05:56:16;;;;;;;17.15;10.75;;;;;;;;;;4225938;28;20055;-50
2020/12/09 05:58:40;;;;;;;18.85;11.52;;;;;;;;;;4226311;28;20421;-48
2020/12/09 06:01:07;;;;;;;20.73;12.60;;;;;;;;;;4226394;28;20055;-48
2020/12/09 06:03:31;;;;;;;25.08;11.73;;;;;;;;;;4226290;28;20063;-49
2020/12/09 06:06:09;;;;;;;32.80;12.82;;;;;;;;;;4226412;28;20062;-50
2020/12/09 06:08:38;;;;;;;51.15;26.20;;;;;;;;;;4225106;28;20482;-48
2020/12/09 06:11:01;;;;;;;45.85;29.77;;;;;;;;;;4226276;28;20148;-55
2020/12/09 06:13:30;;;;;;;41.95;29.58;;;;;;;;;;4226149;28;20062;-55
2020/12/09 06:15:51;;;;;;;45.50;32.45;;;;;;;;;;4218252;28;20125;-55
2020/12/09 06:18:13;;;;;;;44.75;31.27;;;;;;;;;;4208349;28;20086;-55
2020/12/09 06:20:42;;;;;;;47.00;31.85;;;;;;;;;;4209629;28;20067;-55
2020/12/09 06:23:09;;;;;;;44.35;30.80;;;;;;;;;;4209009;28;20055;-55
2020/12/09 06:25:29;;;;;;;42.92;30.70;;;;;;;;;;4208245;28;20051;-55
2020/12/09 06:27:51;;;;;;;42.72;30.38;;;;;;;;;;4204488;28;20213;-55
2020/12/09 06:30:12;;;;;;;45.35;32.05;;;;;;;;;;4196749;28;20437;-55
2020/12/09 06:32:45;;;;;;;43.22;29.63;;;;;;;;;;4195110;28;20118;-55
2020/12/09 06:35:07;;;;;;;44.07;30.33;;;;;;;;;;4195954;28;20079;-55
2020/12/09 06:37:28;;;;;;;40.97;29.70;;;;;;;;;;4193282;28;20051;-55
2020/12/09 06:40:08;;;;;;;43.58;30.90;;;;;;;;;;4194827;28;20137;-55
2020/12/09 06:42:30;;;;;;;44.80;30.80;;;;;;;;;;4197265;28;20122;-55
2020/12/09 06:44:51;;;;;;;43.40;29.83;;;;;;;;;;4197955;28;20082;-55
2020/12/09 06:47:12;;;;;;;45.50;31.20;;;;;;;;;;4196260;28;20047;-55
2020/12/09 06:49:34;;;;;;;;;;;;;;;;;;4197923;28;20573;-55
2020/12/09 06:51:58;;;;;;;42.47;29.92;;;;;;;;;;4197703;28;20060;-55
2020/12/09 06:54:19;;;;;;;44.28;30.08;;;;;;;;;;4195129;28;20059;-55
2020/12/09 06:56:42;;;;;;;46.33;31.00;;;;;;;;;;4195306;28;20051;-55
2020/12/09 06:59:27;;;;;;;44.80;33.33;;;;;;;;;;4195522;28;20113;-55
2020/12/09 07:02:00;;;;;;;44.28;29.45;;;;;;;;;;4197676;28;20063;-54
2020/12/09 07:04:23;;;;;;;45.83;29.77;;;;;;;;;;4195172;28;20406;-55
2020/12/09 07:06:47;;;;;;;45.50;30.13;;;;;;;;;;4196035;28;20082;-55
2020/12/09 07:09:10;;;;;;;45.67;29.75;;;;;;;;;;4196501;28;20085;-58
2020/12/09 07:11:31;;;;;;;45.05;29.73;;;;;;;;;;4196413;28;20105;-58
2020/12/09 07:14:05;;;;;;;44.15;29.67;;;;;;;;;;4197165;28;20529;-57
2020/12/09 07:16:29;;;;;;;50.13;32.75;;;;;;;;;;4208821;28;20169;-56
2020/12/09 07:18:53;;;;;;;44.63;31.63;;;;;;;;;;4196924;28;20114;-47
2020/12/09 07:21:13;;;;;;;43.75;26.00;;;;;;;;;;4196981;28;20083;-49
2020/12/09 07:23:38;;;;;;;39.05;24.20;;;;;;;;;;4197854;28;20430;-50
2020/12/09 07:25:59;;;;;;;36.80;22.00;;;;;;;;;;4196295;28;20059;-47
2020/12/09 07:28:22;;;;;;;39.13;21.95;;;;;;;;;;4197046;28;20055;-50
2020/12/09 07:30:47;;;;;;;36.45;21.77;;;;;;;;;;4197828;28;20059;-47
2020/12/09 07:33:09;;;;;;;35.10;20.48;;;;;;;;;;4195090;28;20064;-47
2020/12/09 07:35:29;;;;;;;30.30;18.63;;;;;;;;;;4195021;28;20059;-50
2020/12/09 07:37:55;;;;;;;29.17;18.83;;;;;;;;;;4195343;28;20117;-50
2020/12/09 07:40:21;;;;;;;29.98;20.13;;;;;;;;;;4193686;28;20568;-49
2020/12/09 07:42:44;;;;;;;28.63;19.35;;;;;;;;;;4195741;28;20438;-47
2020/12/09 07:45:09;;;;;;;;;;;;;;;;;;4197109;28;20064;-48
2020/12/09 07:47:31;;;;;;;26.77;18.35;;;;;;;;;;4194655;28;19971;-48
2020/12/09 07:49:56;;;;;;;29.17;18.40;;;;;;;;;;4194355;28;20086;-49
2020/12/09 07:52:25;;;;;;;27.88;18.27;;;;;;;;;;4194579;28;20142;-47
2020/12/09 07:54:46;;;;;;;25.80;18.25;;;;;;;;;;4196816;28;20135;-50
2020/12/09 07:57:09;;;;;;;26.92;17.77;;;;;;;;;;4193397;28;20047;-47
2020/12/09 07:59:31;;;;;;;27.70;18.42;;;;;;;;;;4194605;28;20058;-46
2020/12/09 08:01:51;;;;;;;31.17;18.67;;;;;;;;;;4194682;28;20151;-47
2020/12/09 08:04:27;;;;;;;24.45;17.00;;;;;;;;;;4193988;28;20050;-48
2020/12/09 08:06:49;;;;;;;27.00;19.08;;;;;;;;;;4194016;28;20135;-47
2020/12/09 08:09:14;;;;;;;27.88;18.45;;;;;;;;;;4194372;28;20059;-47
2020/12/09 08:11:38;;;;;;;27.48;18.98;;;;;;;;;;4194341;28;20054;-46
2020/12/09 08:14:01;;;;;;;27.10;18.77;;;;;;;;;;4195399;28;20513;-47
2020/12/09 08:16:30;;;;;;;26.83;18.77;;;;;;;;;;4196001;28;20067;-47
2020/12/09 08:18:50;;;;;;;24.20;17.73;;;;;;;;;;4195936;28;20446;-50
2020/12/09 08:21:26;;;;;;;24.98;17.77;;;;;;;;;;4195781;28;20063;-49
2020/12/09 08:23:49;;;;;;;23.70;17.25;;;;;;;;;;4196894;28;20141;-47
2020/12/09 08:26:11;;;;;;;28.30;17.83;;;;;;;;;;4196840;28;20109;-49
2020/12/09 08:28:34;;;;;;;24.55;17.60;;;;;;;;;;4196398;28;20556;-51
2020/12/09 08:30:56;;;;;;;24.77;16.90;;;;;;;;;;4196615;28;20510;-47
2020/12/09 08:33:23;;;;;;;23.20;18.05;;;;;;;;;;4196299;28;20067;-48
2020/12/09 08:35:49;;;;;;;22.80;17.83;;;;;;;;;;4196785;28;20105;-50
2020/12/09 08:38:20;;;;;;;22.95;16.65;;;;;;;;;;4196507;28;20056;-48
2020/12/09 08:40:42;;;;;;;24.30;17.65;;;;;;;;;;4196621;28;20509;-49
2020/12/09 08:43:06;;;;;;;23.70;16.90;;;;;;;;;;4190162;28;20423;-47
2020/12/09 08:45:27;;;;;;;25.02;17.52;;;;;;;;;;4177896;28;20141;-47
2020/12/09 08:47:48;;;;;;;24.00;17.38;;;;;;;;;;4177183;28;20110;-47
2020/12/09 08:50:12;;;;;;;22.83;17.80;;;;;;;;;;4177636;28;20064;-47
2020/12/09 08:52:33;;;;;;;24.83;17.20;;;;;;;;;;4177331;28;20067;-48
2020/12/09 08:54:57;;;;;;;26.02;18.55;;;;;;;;;;4177735;28;20419;-48
2020/12/09 08:57:22;;;;;;;23.63;17.70;;;;;;;;;;4177466;28;20118;-48
2020/12/09 08:59:46;;;;;;;22.33;16.33;;;;;;;;;;4178640;28;20134;-47
2020/12/09 09:02:07;;;;;;;23.20;17.02;;;;;;;;;;4176561;28;20059;-48
2020/12/09 09:04:32;;;;;;;24.15;17.30;;;;;;;;;;4178245;28;20894;-47
2020/12/09 09:06:53;;;;;;;21.83;16.02;;;;;;;;;;4179831;28;20103;-46
2020/12/09 09:09:18;;;;;;;23.05;17.30;;;;;;;;;;4179719;28;20071;-47
2020/12/09 09:11:43;;;;;;;20.83;16.42;;;;;;;;;;4179693;28;20060;-47
2020/12/09 09:14:06;;;;;;;21.75;16.20;;;;;;;;;;4178730;28;20832;-46
2020/12/09 09:16:27;;;;;;;22.42;16.33;;;;;;;;;;4179481;28;20060;-46
2020/12/09 09:18:50;;;;;;;22.23;16.35;;;;;;;;;;4179162;28;20126;-47
2020/12/09 09:21:10;;;;;;;19.92;16.73;;;;;;;;;;4179728;28;20059;-47
2020/12/09 09:23:33;;;;;;;23.38;16.85;;;;;;;;;;4179687;28;20047;-47
2020/12/09 09:25:54;;;;;;;24.55;15.73;;;;;;;;;;4179705;28;20064;-48
2020/12/09 09:28:15;;;;;;;21.63;15.90;;;;;;;;;;4177205;28;20060;-48
2020/12/09 09:30:39;;;;;;;18.05;15.00;;;;;;;;;;4177980;28;20534;-47
2020/12/09 09:32:59;;;;;;;19.98;15.00;;;;;;;;;;4189967;28;20075;-47
2020/12/09 09:35:20;;;;;;;20.05;15.02;;;;;;;;;;4193676;28;20059;-47
2020/12/09 09:37:42;;;;;;;;;;;;;;;;;;4193765;28;20102;-47
2020/12/09 09:40:04;;;;;;;20.75;15.73;;;;;;;;;;4194010;28;20043;-49
2020/12/09 09:42:28;;;;;;;18.60;14.75;;;;;;;;;;4192656;28;20561;-47
2020/12/09 09:44:50;;;;;;;;;;;;;;;;;;4193295;28;20113;-47
2020/12/09 09:47:10;;;;;;;22.88;16.17;;;;;;;;;;4194016;28;19978;-50
2020/12/09 09:49:31;;;;;;;21.63;15.73;;;;;;;;;;4193655;28;20067;-47
2020/12/09 09:51:52;;;;;;;19.52;15.02;;;;;;;;;;4193606;28;20124;-47
2020/12/09 09:54:13;;;;;;;;;;;;;;;;;;4195391;28;20064;-50
2020/12/09 09:56:33;;;;;;;17.73;13.93;;;;;;;;;;4193221;28;19957;-47
2020/12/09 09:58:54;;;;;;;19.15;15.07;;;;;;;;;;4193865;28;20059;-47
2020/12/09 10:01:16;;;;;;;19.60;14.00;;;;;;;;;;4193998;28;20060;-48
2020/12/09 10:03:37;;;;;;;21.77;14.20;;;;;;;;;;4194751;28;20593;-47
2020/12/09 10:06:03;;;;;;;17.63;14.15;;;;;;;;;;4196478;28;20087;-47
2020/12/09 10:08:24;;;;;;;19.70;14.32;;;;;;;;;;4197454;28;20058;-47
2020/12/09 10:10:45;;;;;;;18.73;14.00;;;;;;;;;;4197430;28;20055;-46
2020/12/09 10:13:07;;;;;;;18.80;14.32;;;;;;;;;;4196187;28;20153;-47
2020/12/09 10:15:31;;;;;;;16.90;13.73;;;;;;;;;;4196427;28;20055;-48
2020/12/09 10:17:53;;;;;;;20.48;14.55;;;;;;;;;;4194223;28;20137;-49
2020/12/09 10:20:14;;;;;;;17.45;13.63;;;;;;;;;;4191264;28;20113;-46
2020/12/09 10:22:35;;;;;;;20.50;15.02;;;;;;;;;;4196052;28;20134;-49
2020/12/09 10:24:56;;;;;;;16.35;13.70;;;;;;;;;;4195597;28;20130;-47
2020/12/09 10:27:16;;;;;;;17.73;13.57;;;;;;;;;;4195848;28;20098;-47
2020/12/09 10:29:37;;;;;;;18.38;14.18;;;;;;;;;;4196675;28;20098;-47
2020/12/09 10:31:58;;;;;;;17.95;14.10;;;;;;;;;;4196894;28;20769;-47
2020/12/09 10:34:21;;;;;;;17.50;13.27;;;;;;;;;;4195623;28;20063;-46
2020/12/09 10:36:48;;;;;;;17.00;13.73;;;;;;;;;;4195266;28;20060;-46
2020/12/09 10:39:09;;;;;;;18.52;13.93;;;;;;;;;;4179917;28;20055;-46
2020/12/09 10:41:30;;;;;;;17.27;13.38;;;;;;;;;;4180282;28;20056;-47
2020/12/09 10:43:52;;;;;;;18.42;13.60;;;;;;;;;;4178762;28;20541;-46
2020/12/09 10:46:14;;;;;;;18.20;13.75;;;;;;;;;;4180014;28;20114;-48
2020/12/09 10:48:35;;;;;;;17.55;13.73;;;;;;;;;;4178048;28;20518;-46
2020/12/09 10:50:57;;;;;;;16.88;13.70;;;;;;;;;;4188773;28;20056;-47
2020/12/09 10:53:18;;;;;;;19.13;13.70;;;;;;;;;;4191278;28;20063;-47
2020/12/09 10:55:39;;;;;;;;;;;;;;;;;;4195810;28;20137;-49
2020/12/09 10:58:00;;;;;;;20.83;14.00;;;;;;;;;;4193122;28;19927;-47
2020/12/09 11:00:24;;;;;;;21.15;14.90;;;;;;;;;;4195531;28;20071;-57
2020/12/09 11:02:44;;;;;;;26.60;15.70;;;;;;;;;;4195313;28;20150;-46
2020/12/09 11:05:07;;;;;;;19.35;13.60;;;;;;;;;;4195740;28;20509;-47
2020/12/09 11:07:29;;;;;;;17.38;13.25;;;;;;;;;;4195640;28;20493;-46
2020/12/09 11:09:53;;;;;;;19.33;13.27;;;;;;;;;;4194903;28;20068;-46
2020/12/09 11:12:13;;;;;;;18.58;13.68;;;;;;;;;;4195154;28;20510;-46
2020/12/09 11:14:37;;;;;;;21.60;13.93;;;;;;;;;;4195864;28;20068;-50
2020/12/09 11:16:59;;;;;;;19.23;14.13;;;;;;;;;;4195766;28;20406;-48
2020/12/09 11:19:21;;;;;;;21.15;14.80;;;;;;;;;;4195476;28;20059;-47
2020/12/09 11:21:44;;;;;;;17.35;12.70;;;;;;;;;;4195236;28;20054;-47
2020/12/09 11:24:06;;;;;;;22.10;13.52;;;;;;;;;;4194373;28;20162;-47
2020/12/09 11:26:27;;;;;;;18.23;13.07;;;;;;;;;;4195821;28;20094;-46
2020/12/09 11:28:49;;;;;;;19.48;13.93;;;;;;;;;;4193832;28;20063;-46
2020/12/09 11:31:13;;;;;;;19.30;13.88;;;;;;;;;;4195620;28;20541;-47
2020/12/09 11:33:34;;;;;;;;;;;;;;;;;;4195520;28;20106;-47
2020/12/09 11:35:59;;;;;;;18.10;12.48;;;;;;;;;;4195762;28;20181;-46
2020/12/09 11:38:25;;;;;;;18.95;12.95;;;;;;;;;;4196287;28;20055;-47
2020/12/09 11:40:49;;;;;;;17.83;13.43;;;;;;;;;;4194376;28;20087;-47
2020/12/09 11:43:12;;;;;;;16.60;12.10;;;;;;;;;;4194228;28;20074;-46
2020/12/09 11:45:35;;;;;;;18.45;13.05;;;;;;;;;;4193269;28;20087;-50
2020/12/09 11:47:58;;;;;;;18.17;13.50;;;;;;;;;;4194338;28;20110;-50
2020/12/09 11:50:19;;;;;;;19.65;13.52;;;;;;;;;;4195560;28;20055;-48
2020/12/09 11:52:43;;;;;;;21.33;14.10;;;;;;;;;;4194673;28;20141;-49
2020/12/09 11:55:04;;;;;;;19.65;15.02;;;;;;;;;;4193798;28;20055;-50
2020/12/09 11:57:25;;;;;;;19.27;14.15;;;;;;;;;;4193855;28;20055;-49
2020/12/09 11:59:48;;;;;;;21.00;14.63;;;;;;;;;;4195741;28;20098;-51
2020/12/09 12:02:08;;;;;;;19.52;15.02;;;;;;;;;;4190876;28;20058;-51
2020/12/09 12:04:32;;;;;;;19.95;14.07;;;;;;;;;;4194661;28;20058;-49
2020/12/09 12:06:53;;;;;;;19.50;13.85;;;;;;;;;;4194822;28;20063;-49
2020/12/09 12:09:14;;;;;;;20.20;13.93;;;;;;;;;;4192222;28;20063;-50
2020/12/09 12:11:35;;;;;;;24.25;14.50;;;;;;;;;;4192679;28;20610;-52
2020/12/09 12:13:57;;;;;;;19.40;12.93;;;;;;;;;;4192916;28;20445;-50
2020/12/09 12:16:19;;;;;;;19.70;14.18;;;;;;;;;;4192955;28;20091;-48
2020/12/09 12:18:40;;;;;;;17.25;13.43;;;;;;;;;;4193544;28;20133;-49
2020/12/09 12:21:04;;;;;;;19.63;14.38;;;;;;;;;;4193504;28;20047;-47
2020/12/09 12:23:25;;;;;;;;;;;;;;;;;;4193664;28;20113;-48
2020/12/09 12:25:50;;;;;;;20.40;12.85;;;;;;;;;;4193343;28;19931;-47
2020/12/09 12:28:14;;;;;;;19.42;13.98;;;;;;;;;;4193895;28;20055;-48
2020/12/09 12:30:36;;;;;;;20.73;13.10;;;;;;;;;;4192905;28;20056;-50
2020/12/09 12:32:57;;;;;;;18.58;12.73;;;;;;;;;;4192568;28;20121;-48
2020/12/09 12:35:18;;;;;;;21.23;13.35;;;;;;;;;;4191758;28;20054;-48
2020/12/09 12:37:41;;;;;;;20.38;12.43;;;;;;;;;;4190858;28;20481;-49
2020/12/09 12:40:05;;;;;;;21.15;13.45;;;;;;;;;;4191772;28;20058;-48
2020/12/09 12:42:26;;;;;;;19.30;12.68;;;;;;;;;;4191018;28;20114;-48
2020/12/09 12:44:46;;;;;;;20.10;12.90;;;;;;;;;;4191946;28;20509;-48
2020/12/09 12:47:08;;;;;;;22.77;12.80;;;;;;;;;;4192296;28;20057;-48
2020/12/09 12:49:29;;;;;;;21.17;12.10;;;;;;;;;;4192797;28;20060;-49
2020/12/09 12:51:51;;;;;;;19.63;12.48;;;;;;;;;;4193614;28;20050;-48
2020/12/09 12:54:14;;;;;;;21.33;13.20;;;;;;;;;;4190223;28;20098;-49
2020/12/09 12:56:35;;;;;;;18.90;12.23;;;;;;;;;;4190940;28;20055;-48
2020/12/09 12:58:55;;;;;;;23.02;12.60;;;;;;;;;;4186914;28;20740;-47
2020/12/09 13:01:17;;;;;;;18.75;11.65;;;;;;;;;;4192030;28;20055;-49
2020/12/09 13:03:40;;;;;;;23.70;12.68;;;;;;;;;;4192199;28;20418;-50
2020/12/09 13:06:05;;;;;;;20.65;12.13;;;;;;;;;;4194056;28;20536;-49
2020/12/09 13:08:26;;;;;;;19.98;13.77;;;;;;;;;;4194273;28;20141;-49
2020/12/09 13:10:47;;;;;;;22.70;12.85;;;;;;;;;;4192111;28;20059;-49
2020/12/09 13:13:08;;;;;;;;;;;;;;;;;;4192207;28;20058;-48
2020/12/09 13:15:29;;;;;;;;;;;;;;;;;;4192913;28;20388;-49
2020/12/09 13:17:50;;;;;;;21.13;13.45;;;;;;;;;;4192566;28;19974;-50
2020/12/09 13:20:12;;;;;;;24.45;12.90;;;;;;;;;;4195990;28;20090;-51
2020/12/09 13:22:33;;;;;;;20.88;12.88;;;;;;;;;;4210327;28;20135;-50
2020/12/09 13:24:54;;;;;;;20.13;12.93;;;;;;;;;;4199590;28;20458;-52
2020/12/09 13:27:20;;;;;;;20.25;12.60;;;;;;;;;;4191184;28;20656;-52
2020/12/09 13:29:41;;;;;;;20.33;12.65;;;;;;;;;;4183544;28;20071;-48
2020/12/09 13:32:02;;;;;;;20.83;11.93;;;;;;;;;;4191620;28;20137;-48
2020/12/09 13:34:24;;;;;;;22.77;13.13;;;;;;;;;;4191268;28;20055;-48
2020/12/09 13:36:48;;;;;;;20.42;12.55;;;;;;;;;;4191585;28;20130;-48
2020/12/09 13:39:10;;;;;;;19.92;12.98;;;;;;;;;;4187598;28;20457;-50
2020/12/09 13:41:30;;;;;;;21.55;13.35;;;;;;;;;;4196008;28;20051;-49
2020/12/09 13:43:51;;;;;;;21.67;11.75;;;;;;;;;;4194174;28;20056;-48
2020/12/09 13:46:13;;;;;;;18.02;12.35;;;;;;;;;;4193968;28;20067;-48
2020/12/09 13:48:35;;;;;;;18.63;12.75;;;;;;;;;;4195413;28;20055;-50
2020/12/09 13:51:04;;;;;;;19.90;12.23;;;;;;;;;;4192891;28;20096;-48
2020/12/09 13:53:26;;;;;;;21.45;12.82;;;;;;;;;;4191104;28;20201;-49
2020/12/09 13:55:47;;;;;;;20.13;12.73;;;;;;;;;;4188530;28;20150;-49
2020/12/09 13:58:11;;;;;;;19.92;12.10;;;;;;;;;;4194543;28;20099;-51
2020/12/09 14:00:32;;;;;;;18.10;11.57;;;;;;;;;;4194488;28;20141;-48
2020/12/09 14:02:53;;;;;;;22.35;13.60;;;;;;;;;;4194318;28;20245;-48
2020/12/09 14:05:20;;;;;;;21.00;12.75;;;;;;;;;;4196305;28;20062;-49
2020/12/09 14:07:41;;;;;;;20.67;12.82;;;;;;;;;;4191261;28;20126;-49
2020/12/09 14:10:03;;;;;;;24.98;13.55;;;;;;;;;;4192910;28;20072;-48
2020/12/09 14:12:25;;;;;;;19.60;11.70;;;;;;;;;;4191718;28;20055;-51
2020/12/09 14:14:49;;;;;;;19.17;13.05;;;;;;;;;;4192250;28;20133;-48
2020/12/09 14:17:10;;;;;;;16.85;11.50;;;;;;;;;;4193371;28;20141;-56
2020/12/09 14:19:33;;;;;;;23.08;12.88;;;;;;;;;;4194104;28;20137;-49
2020/12/09 14:21:53;;;;;;;24.05;12.90;;;;;;;;;;4195658;28;20063;-48
2020/12/09 14:24:15;;;;;;;;;;;;;;;;;;4194564;28;20612;-48
2020/12/09 14:26:37;;;;;;;23.70;13.65;;;;;;;;;;4193272;28;19931;-52
2020/12/09 14:29:00;;;;;;;19.10;13.13;;;;;;;;;;4192949;28;20130;-49
2020/12/09 14:31:21;;;;;;;19.83;12.73;;;;;;;;;;4192781;28;20407;-49
2020/12/09 14:33:43;;;;;;;18.92;12.80;;;;;;;;;;4191049;28;20055;-52
2020/12/09 14:36:04;;;;;;;23.35;12.70;;;;;;;;;;4192200;28;20067;-48
2020/12/09 14:38:29;;;;;;;18.55;12.90;;;;;;;;;;4185499;28;20650;-48
2020/12/09 14:40:50;;;;;;;19.45;12.93;;;;;;;;;;4191230;28;20051;-48
2020/12/09 14:43:12;;;;;;;;;;;;;;;;;;4192788;28;20540;-49
2020/12/09 14:45:33;;;;;;;17.20;11.75;;;;;;;;;;4191201;28;19935;-51
2020/12/09 14:47:55;;;;;;;;;;;;;;;;;;4193927;28;20086;-57
2020/12/09 14:50:16;;;;;;;22.08;13.38;;;;;;;;;;4192149;28;19973;-57
2020/12/09 14:52:38;;;;;;;21.10;13.35;;;;;;;;;;4192515;28;20051;-57
2020/12/09 14:55:02;;;;;;;19.95;12.80;;;;;;;;;;4195508;28;20494;-57
2020/12/09 14:57:22;;;;;;;20.13;12.38;;;;;;;;;;4193747;28;20059;-57
2020/12/09 14:59:44;;;;;;;22.75;13.00;;;;;;;;;;4192252;28;20644;-51
2020/12/09 15:02:06;;;;;;;20.27;12.70;;;;;;;;;;4193063;28;20051;-57
2020/12/09 15:04:28;;;;;;;18.33;11.50;;;;;;;;;;4195089;28;20110;-57
2020/12/09 15:06:49;;;;;;;18.08;11.60;;;;;;;;;;4196183;28;20776;-57
2020/12/09 15:09:10;;;;;;;17.75;11.95;;;;;;;;;;4194153;28;20109;-57
2020/12/09 15:11:32;;;;;;;17.52;12.55;;;;;;;;;;4188485;28;20055;-57
2020/12/09 15:13:53;;;;;;;18.30;12.50;;;;;;;;;;4187278;28;20059;-57
2020/12/09 15:16:15;;;;;;;20.50;12.30;;;;;;;;;;4193724;28;20545;-58
2020/12/09 15:18:36;;;;;;;19.17;11.75;;;;;;;;;;4191097;28;20896;-57
2020/12/09 15:20:57;;;;;;;;;;;;;;;;;;4191897;28;20147;-56
2020/12/09 15:23:25;;;;;;;18.23;11.38;;;;;;;;;;4188677;28;19955;-56
2020/12/09 15:25:48;;;;;;;21.80;11.55;;;;;;;;;;4179027;28;20056;-57
2020/12/09 15:28:10;;;;;;;18.13;11.73;;;;;;;;;;4182525;28;20148;-56
2020/12/09 15:30:31;;;;;;;18.83;11.48;;;;;;;;;;4194492;28;20692;-57
2020/12/09 15:33:02;;;;;;;19.30;11.88;;;;;;;;;;4193452;28;20055;-57
2020/12/09 15:35:23;;;;;;;17.25;10.68;;;;;;;;;;4191715;28;20063;-48
2020/12/09 15:37:44;;;;;;;;;;;;;;;;;;4190444;28;20051;-48
2020/12/09 15:40:06;;;;;;;17.30;10.95;;;;;;;;;;4192752;28;19973;-53
2020/12/09 15:42:27;;;;;;;16.83;10.88;;;;;;;;;;4189608;28;20059;-52
2020/12/09 15:44:48;;;;;;;16.45;10.63;;;;;;;;;;4188366;28;20141;-50
2020/12/09 15:47:10;;;;;;;19.42;11.77;;;;;;;;;;4194864;28;20059;-47
2020/12/09 15:49:32;;;;;;;;;;;;;;;;;;4192592;28;20137;-49
2020/12/09 15:51:53;;;;;;;17.67;11.05;;;;;;;;;;4193261;28;19954;-49
2020/12/09 15:54:14;;;;;;;16.67;11.88;;;;;;;;;;4192501;28;20058;-50
2020/12/09 15:56:37;;;;;;;18.10;11.65;;;;;;;;;;4192798;28;20063;-50
2020/12/09 15:58:58;;;;;;;20.00;11.07;;;;;;;;;;4193677;28;20153;-53
2020/12/09 16:01:20;;;;;;;17.65;11.57;;;;;;;;;;4193395;28;20517;-48
2020/12/09 16:03:41;;;;;;;20.45;11.48;;;;;;;;;;4190637;28;20059;-51
2020/12/09 16:06:04;;;;;;;15.65;10.60;;;;;;;;;;4192454;28;20064;-50
2020/12/09 16:08:26;;;;;;;14.95;10.82;;;;;;;;;;4193340;28;20063;-48
2020/12/09 16:10:46;;;;;;;18.70;11.60;;;;;;;;;;4193527;28;20055;-51
2020/12/09 16:13:08;;;;;;;17.08;11.20;;;;;;;;;;4176492;28;20067;-52
2020/12/09 16:15:29;;;;;;;15.90;10.68;;;;;;;;;;4177384;28;20510;-53
2020/12/09 16:17:52;;;;;;;16.48;11.38;;;;;;;;;;4145143;28;20163;-48
2020/12/09 16:20:12;;;;;;;16.52;10.23;;;;;;;;;;4145201;28;20068;-51
2020/12/09 16:22:34;;;;;;;17.58;11.13;;;;;;;;;;4158728;28;20557;-49
2020/12/09 16:24:55;;;;;;;14.68;10.18;;;;;;;;;;4158845;28;20436;-50
2020/12/09 16:27:16;;;;;;;16.83;11.90;;;;;;;;;;4159937;28;20147;-49
2020/12/09 16:29:52;;;;;;;14.02;11.18;;;;;;;;;;4160762;28;20056;-49
2020/12/09 16:32:13;;;;;;;16.65;11.18;;;;;;;;;;4145001;28;20060;-50
2020/12/09 16:34:37;;;;;;;13.90;9.80;;;;;;;;;;4144790;28;20578;-52
2020/12/09 16:37:02;;;;;;;14.57;9.95;;;;;;;;;;4144281;28;20132;-51
2020/12/09 16:39:26;;;;;;;16.38;10.93;;;;;;;;;;4145510;28;20060;-49
2020/12/09 16:41:56;;;;;;;15.48;10.88;;;;;;;;;;4144037;28;20527;-56
2020/12/09 16:44:20;;;;;;;16.40;10.75;;;;;;;;;;4152181;28;20083;-56
2020/12/09 16:46:43;;;;;;;13.77;10.13;;;;;;;;;;4157065;28;20067;-55
2020/12/09 16:49:07;;;;;;;14.02;10.48;;;;;;;;;;4158161;28;20447;-56
2020/12/09 16:51:28;;;;;;;15.05;9.70;;;;;;;;;;4160661;28;20518;-55
2020/12/09 16:53:51;;;;;;;13.55;10.38;;;;;;;;;;4157737;28;20060;-55
2020/12/09 16:56:16;;;;;;;14.82;10.30;;;;;;;;;;4160130;28;20136;-56
2020/12/09 16:58:39;;;;;;;12.15;9.30;;;;;;;;;;4158273;28;20107;-55
2020/12/09 17:01:03;;;;;;;11.60;9.13;;;;;;;;;;4144724;28;20103;-54
2020/12/09 17:03:27;;;;;;;12.15;9.38;;;;;;;;;;4144714;28;20069;-50
2020/12/09 17:05:54;;;;;;;12.00;9.23;;;;;;;;;;4126303;28;20061;-56
2020/12/09 17:08:18;;;;;;;13.25;9.65;;;;;;;;;;4125780;28;20053;-57
2020/12/09 17:10:39;;;;;;;14.27;9.25;;;;;;;;;;4126585;28;20059;-48
2020/12/09 17:13:01;;;;;;;13.10;8.95;;;;;;;;;;4140487;28;20216;-48
2020/12/09 17:15:24;;;;;;;14.25;9.60;;;;;;;;;;4141688;28;20056;-48
2020/12/09 17:17:47;;;;;;;13.10;9.38;;;;;;;;;;4142026;28;20064;-47
2020/12/09 17:20:10;;;;;;;12.32;8.15;;;;;;;;;;4139940;28;20056;-48
2020/12/09 17:22:34;;;;;;;12.35;7.75;;;;;;;;;;4126403;28;20061;-49
2020/12/09 17:24:55;;;;;;;13.27;8.70;;;;;;;;;;4141498;28;20064;-51
2020/12/09 17:27:19;;;;;;;12.30;8.93;;;;;;;;;;4141872;28;20064;-47
2020/12/09 17:29:43;;;;;;;13.43;9.20;;;;;;;;;;4141217;28;20064;-50
2020/12/09 17:32:06;;;;;;;15.20;9.48;;;;;;;;;;4126956;28;20665;-48
2020/12/09 17:34:27;;;;;;;11.32;8.50;;;;;;;;;;4126743;28;20645;-48
2020/12/09 17:36:50;;;;;;;14.50;8.75;;;;;;;;;;4141036;28;20068;-48
2020/12/09 17:39:13;;;;;;;14.73;8.65;;;;;;;;;;4139140;28;20523;-52
2020/12/09 17:41:33;;;;;;;12.43;9.00;;;;;;;;;;4141387;28;20060;-50
2020/12/09 17:43:57;;;;;;;12.07;9.00;;;;;;;;;;4137562;28;20073;-50
2020/12/09 17:46:18;;;;;;;14.52;8.80;;;;;;;;;;4138319;28;20555;-47
2020/12/09 17:48:38;;;;;;;10.55;8.02;;;;;;;;;;4137521;28;20061;-49
2020/12/09 17:50:59;;;;;;;14.65;9.50;;;;;;;;;;4159077;28;20060;-49
2020/12/09 17:53:20;;;;;;;;;;;;;;;;;;4159115;28;20051;-49
2020/12/09 17:55:41;;;;;;;12.13;8.52;;;;;;;;;;4159095;28;19978;-48
2020/12/09 17:58:01;;;;;;;;;;;;;;;;;;4155745;28;20183;-47
2020/12/09 18:00:27;;;;;;;14.68;9.43;;;;;;;;;;4147239;28;19935;-48
2020/12/09 18:02:50;;;;;;;13.77;9.25;;;;;;;;;;4143613;28;20128;-46
2020/12/09 18:05:10;;;;;;;13.35;8.27;;;;;;;;;;4146256;28;20061;-57
2020/12/09 18:07:31;;;;;;;15.75;8.77;;;;;;;;;;4158351;28;20511;-57
2020/12/09 18:09:55;;;;;;;15.82;8.82;;;;;;;;;;4159727;28;20052;-57
2020/12/09 18:12:18;;;;;;;11.57;8.70;;;;;;;;;;4158974;28;20111;-56
2020/12/09 18:14:45;;;;;;;13.35;8.55;;;;;;;;;;4159826;28;20469;-57
2020/12/09 18:17:06;;;;;;;17.08;8.95;;;;;;;;;;4181305;28;20080;-50
2020/12/09 18:19:27;;;;;;;16.98;8.38;;;;;;;;;;4189348;28;20055;-50
2020/12/09 18:21:53;;;;;;;19.90;9.05;;;;;;;;;;4189259;28;20587;-53
2020/12/09 18:24:13;;;;;;;15.60;8.00;;;;;;;;;;4193176;28;20417;-52
2020/12/09 18:26:39;;;;;;;12.85;8.05;;;;;;;;;;4194961;28;20126;-53
2020/12/09 18:29:00;;;;;;;17.35;8.98;;;;;;;;;;4192296;28;20525;-54
2020/12/09 18:31:24;;;;;;;15.20;9.18;;;;;;;;;;4193404;28;20059;-55
2020/12/09 18:33:45;;;;;;;15.18;8.82;;;;;;;;;;4194557;28;20056;-53
2020/12/09 18:36:07;;;;;;;;;;;;;;;;;;4196079;28;20059;-54
2020/12/09 18:38:28;;;;;;;11.73;7.95;;;;;;;;;;4194783;28;19935;-53
2020/12/09 18:40:48;;;;;;;18.98;10.10;;;;;;;;;;4191057;28;20119;-56
2020/12/09 18:43:13;;;;;;;18.60;10.02;;;;;;;;;;4189542;28;20055;-51
2020/12/09 18:45:34;;;;;;;17.65;10.32;;;;;;;;;;4191073;28;20059;-53
2020/12/09 18:47:55;;;;;;;;;;;;;;;;;;4192099;28;20048;-50
